Terminal Aerodrome Forecast
Issued by NWS Boise, ID

Home | Current Version | Previous Version | Text Only | Print | Product List | Glossary On
Versions: 1 2 3 4 5 6 7 8 9 10 11 12 13 14 15 16 17 18 19 20 21 22
000
FTUS45 KBOI 301720
TAFBNO
TAF
KBNO 301720Z 3018/3118 24010KT P6SM BKN150
     FM301900 24012G20KT P6SM FEW100 BKN150
     FM310300 27006KT P6SM FEW100=

USA.gov is the U.S. government's official web portal to all federal, state and local government web resources and services.